Houston, Texas
Traffic Map
Current Weather Conditions
Houston, Texas
Broken Clouds
Broken Clouds
90°
Feels Like: 98°
Wind Chill: 90° Ceiling: 3500
Heat Index: 98° Visibility: 10mi
Dew Point: 73° Wind: 13mph
Humidity: 57% Direction: 180° (S)
Pressure: 29.89in Gusts: 22mph
Raw Report DataKIAH 261853Z 18011G19KT 10SM BKN035 BKN045 32/23 A2989 RMK AO2 SLP121 T03220228
Traffic Incident Summary
Active as of:
Severity:
Category:
InformationThere was an issue retrieving the traffic information for this location. Please try a different location or try again shortly.
Advertisements
Track Severe Weather on mobile